sensor_id;sensor_type;location;lat;lon;timestamp;temperature;humidity
25582;DHT22;13462;50.764;4.332;2022-11-20T00:02:20;5.10;99.90
25582;DHT22;13462;50.764;4.332;2022-11-20T00:05:20;4.90;99.90
25582;DHT22;13462;50.764;4.332;2022-11-20T00:08:02;4.90;99.90
25582;DHT22;13462;50.764;4.332;2022-11-20T00:13:48;5.20;99.90
25582;DHT22;13462;50.764;4.332;2022-11-20T00:16:17;5.00;99.90
25582;DHT22;13462;50.764;4.332;2022-11-20T00:18:43;5.00;99.90
25582;DHT22;13462;50.764;4.332;2022-11-20T00:21:24;5.10;99.90
25582;DHT22;13462;50.764;4.332;2022-11-20T00:23:51;5.10;99.90
25582;DHT22;13462;50.764;4.332;2022-11-20T00:26:24;5.20;99.90
25582;DHT22;13462;50.764;4.332;2022-11-20T00:31:39;5.30;99.90
25582;DHT22;13462;50.764;4.332;2022-11-20T00:34:04;5.40;99.90
25582;DHT22;13462;50.764;4.332;2022-11-20T00:36:33;5.40;99.90
25582;DHT22;13462;50.764;4.332;2022-11-20T00:38:59;5.40;99.90
25582;DHT22;13462;50.764;4.332;2022-11-20T00:41:26;5.40;99.90
25582;DHT22;13462;50.764;4.332;2022-11-20T00:43:53;5.30;99.90
25582;DHT22;13462;50.764;4.332;2022-11-20T00:46:21;5.30;99.90
25582;DHT22;13462;50.764;4.332;2022-11-20T00:48:50;5.20;99.90
25582;DHT22;13462;50.764;4.332;2022-11-20T00:51:21;5.40;99.90
25582;DHT22;13462;50.764;4.332;2022-11-20T00:53:47;5.30;99.90
25582;DHT22;13462;50.764;4.332;2022-11-20T00:56:35;5.20;99.90
25582;DHT22;13462;50.764;4.332;2022-11-20T00:59:01;5.30;99.90
25582;DHT22;13462;50.764;4.332;2022-11-20T01:01:27;5.10;99.90
25582;DHT22;13462;50.764;4.332;2022-11-20T01:03:56;5.00;99.90
25582;DHT22;13462;50.764;4.332;2022-11-20T01:06:24;5.10;99.90
25582;DHT22;13462;50.764;4.332;2022-11-20T01:08:55;5.30;99.90
25582;DHT22;13462;50.764;4.332;2022-11-20T01:11:30;5.40;99.90
25582;DHT22;13462;50.764;4.332;2022-11-20T01:13:57;5.50;99.90
25582;DHT22;13462;50.764;4.332;2022-11-20T01:19:04;5.10;99.90
25582;DHT22;13462;50.764;4.332;2022-11-20T01:21:33;5.20;99.90
25582;DHT22;13462;50.764;4.332;2022-11-20T01:27:12;5.40;99.90
25582;DHT22;13462;50.764;4.332;2022-11-20T01:29:38;5.40;99.90
25582;DHT22;13462;50.764;4.332;2022-11-20T01:32:05;5.50;99.90
25582;DHT22;13462;50.764;4.332;2022-11-20T01:34:30;5.60;99.90
25582;DHT22;13462;50.764;4.332;2022-11-20T01:36:56;5.40;99.90
25582;DHT22;13462;50.764;4.332;2022-11-20T02:07:16;4.90;99.90
25582;DHT22;13462;50.764;4.332;2022-11-20T02:16:55;4.60;99.90
25582;DHT22;13462;50.764;4.332;2022-11-20T02:22:54;4.70;99.90
25582;DHT22;13462;50.764;4.332;2022-11-20T02:25:26;4.80;99.90
25582;DHT22;13462;50.764;4.332;2022-11-20T02:27:53;4.70;99.90
25582;DHT22;13462;50.764;4.332;2022-11-20T03:00:07;4.70;99.90
25582;DHT22;13462;50.764;4.332;2022-11-20T03:02:36;4.60;99.90
25582;DHT22;13462;50.764;4.332;2022-11-20T03:15:39;5.00;99.90
25582;DHT22;13462;50.764;4.332;2022-11-20T03:18:14;5.10;99.90
25582;DHT22;13462;50.764;4.332;2022-11-20T03:20:59;5.20;99.90
25582;DHT22;13462;50.764;4.332;2022-11-20T03:52:17;4.90;99.90
25582;DHT22;13462;50.764;4.332;2022-11-20T04:01:42;4.80;99.90
25582;DHT22;13462;50.764;4.332;2022-11-20T04:07:51;4.80;99.90
25582;DHT22;13462;50.764;4.332;2022-11-20T04:24:01;5.00;99.90
25582;DHT22;13462;50.764;4.332;2022-11-20T04:26:29;5.00;99.90
25582;DHT22;13462;50.764;4.332;2022-11-20T04:28:56;5.00;99.90
25582;DHT22;13462;50.764;4.332;2022-11-20T04:31:27;5.00;99.90
25582;DHT22;13462;50.764;4.332;2022-11-20T04:33:53;5.00;99.90
25582;DHT22;13462;50.764;4.332;2022-11-20T04:36:23;5.10;99.90
25582;DHT22;13462;50.764;4.332;2022-11-20T04:41:59;5.20;99.90
25582;DHT22;13462;50.764;4.332;2022-11-20T04:44:44;5.20;99.90
25582;DHT22;13462;50.764;4.332;2022-11-20T04:47:12;5.20;99.90
25582;DHT22;13462;50.764;4.332;2022-11-20T04:49:38;5.20;99.90
25582;DHT22;13462;50.764;4.332;2022-11-20T04:52:04;5.30;99.90
25582;DHT22;13462;50.764;4.332;2022-11-20T04:54:40;5.30;99.90
25582;DHT22;13462;50.764;4.332;2022-11-20T04:57:06;5.40;99.90
25582;DHT22;13462;50.764;4.332;2022-11-20T04:59:44;5.40;99.90
25582;DHT22;13462;50.764;4.332;2022-11-20T05:02:12;5.30;99.90
25582;DHT22;13462;50.764;4.332;2022-11-20T05:04:43;5.30;99.90
25582;DHT22;13462;50.764;4.332;2022-11-20T05:07:09;5.30;99.90
25582;DHT22;13462;50.764;4.332;2022-11-20T05:09:37;5.40;99.90
25582;DHT22;13462;50.764;4.332;2022-11-20T05:12:04;5.40;99.90
25582;DHT22;13462;50.764;4.332;2022-11-20T05:14:29;5.40;99.90
25582;DHT22;13462;50.764;4.332;2022-11-20T05:16:55;5.20;99.90
25582;DHT22;13462;50.764;4.332;2022-11-20T05:19:27;5.10;99.90
25582;DHT22;13462;50.764;4.332;2022-11-20T05:21:53;5.10;99.90
25582;DHT22;13462;50.764;4.332;2022-11-20T05:24:41;5.10;99.90
25582;DHT22;13462;50.764;4.332;2022-11-20T05:27:14;5.20;99.90
25582;DHT22;13462;50.764;4.332;2022-11-20T05:29:40;5.20;99.90
25582;DHT22;13462;50.764;4.332;2022-11-20T05:32:18;5.10;99.90
25582;DHT22;13462;50.764;4.332;2022-11-20T05:34:53;5.20;99.90
25582;DHT22;13462;50.764;4.332;2022-11-20T05:37:24;5.40;99.90
25582;DHT22;13462;50.764;4.332;2022-11-20T05:39:50;5.50;99.90
25582;DHT22;13462;50.764;4.332;2022-11-20T05:42:18;5.50;99.90
25582;DHT22;13462;50.764;4.332;2022-11-20T05:45:01;5.50;99.90
25582;DHT22;13462;50.764;4.332;2022-11-20T05:47:28;5.50;99.90
25582;DHT22;13462;50.764;4.332;2022-11-20T05:49:56;5.50;99.90
25582;DHT22;13462;50.764;4.332;2022-11-20T05:52:22;5.50;99.90
25582;DHT22;13462;50.764;4.332;2022-11-20T05:54:48;5.60;99.90
25582;DHT22;13462;50.764;4.332;2022-11-20T05:57:14;5.70;99.90
25582;DHT22;13462;50.764;4.332;2022-11-20T05:59:40;5.60;99.90
25582;DHT22;13462;50.764;4.332;2022-11-20T06:02:05;5.50;99.90
25582;DHT22;13462;50.764;4.332;2022-11-20T06:04:31;5.50;99.90
25582;DHT22;13462;50.764;4.332;2022-11-20T06:06:57;5.40;99.90
25582;DHT22;13462;50.764;4.332;2022-11-20T06:09:23;5.50;99.90
25582;DHT22;13462;50.764;4.332;2022-11-20T06:11:48;5.60;99.90
25582;DHT22;13462;50.764;4.332;2022-11-20T06:14:14;5.70;99.90
25582;DHT22;13462;50.764;4.332;2022-11-20T06:16:40;5.60;99.90
25582;DHT22;13462;50.764;4.332;2022-11-20T06:21:42;5.60;99.90
25582;DHT22;13462;50.764;4.332;2022-11-20T06:24:09;5.70;99.90
25582;DHT22;13462;50.764;4.332;2022-11-20T06:26:35;5.60;99.90
25582;DHT22;13462;50.764;4.332;2022-11-20T06:29:01;5.50;99.90
25582;DHT22;13462;50.764;4.332;2022-11-20T06:31:27;5.40;99.90
25582;DHT22;13462;50.764;4.332;2022-11-20T06:33:54;5.40;99.90
25582;DHT22;13462;50.764;4.332;2022-11-20T06:36:21;5.50;99.90
25582;DHT22;13462;50.764;4.332;2022-11-20T06:38:47;5.50;99.90
25582;DHT22;13462;50.764;4.332;2022-11-20T06:41:18;5.60;99.90
25582;DHT22;13462;50.764;4.332;2022-11-20T06:43:45;5.60;99.90
25582;DHT22;13462;50.764;4.332;2022-11-20T06:46:12;5.60;99.90
25582;DHT22;13462;50.764;4.332;2022-11-20T06:48:38;5.60;99.90
25582;DHT22;13462;50.764;4.332;2022-11-20T06:51:05;5.60;99.90
25582;DHT22;13462;50.764;4.332;2022-11-20T06:53:32;5.60;99.90
25582;DHT22;13462;50.764;4.332;2022-11-20T06:55:58;5.70;99.90
25582;DHT22;13462;50.764;4.332;2022-11-20T06:58:50;5.70;99.90
25582;DHT22;13462;50.764;4.332;2022-11-20T07:01:16;5.70;99.90
25582;DHT22;13462;50.764;4.332;2022-11-20T07:03:43;5.70;99.90
25582;DHT22;13462;50.764;4.332;2022-11-20T07:06:09;5.80;99.90
25582;DHT22;13462;50.764;4.332;2022-11-20T07:08:35;5.80;99.90
25582;DHT22;13462;50.764;4.332;2022-11-20T07:11:03;5.80;99.90
25582;DHT22;13462;50.764;4.332;2022-11-20T07:13:30;5.80;99.90
25582;DHT22;13462;50.764;4.332;2022-11-20T07:16:00;5.90;99.90
25582;DHT22;13462;50.764;4.332;2022-11-20T07:18:27;5.90;99.90
25582;DHT22;13462;50.764;4.332;2022-11-20T07:20:52;6.00;99.90
25582;DHT22;13462;50.764;4.332;2022-11-20T07:23:18;6.00;99.90
25582;DHT22;13462;50.764;4.332;2022-11-20T07:25:44;5.90;99.90
25582;DHT22;13462;50.764;4.332;2022-11-20T07:28:10;6.00;99.90
25582;DHT22;13462;50.764;4.332;2022-11-20T07:30:36;6.10;99.90
25582;DHT22;13462;50.764;4.332;2022-11-20T07:33:02;5.90;99.90
25582;DHT22;13462;50.764;4.332;2022-11-20T07:35:27;6.00;99.90
25582;DHT22;13462;50.764;4.332;2022-11-20T07:37:53;6.00;99.90
25582;DHT22;13462;50.764;4.332;2022-11-20T07:40:20;6.10;99.90
25582;DHT22;13462;50.764;4.332;2022-11-20T07:42:54;6.20;99.90
25582;DHT22;13462;50.764;4.332;2022-11-20T07:45:25;6.20;99.90
25582;DHT22;13462;50.764;4.332;2022-11-20T07:47:51;6.20;99.90
25582;DHT22;13462;50.764;4.332;2022-11-20T07:50:32;6.20;99.90
25582;DHT22;13462;50.764;4.332;2022-11-20T07:53:16;6.20;99.90
25582;DHT22;13462;50.764;4.332;2022-11-20T07:55:46;6.20;99.90
25582;DHT22;13462;50.764;4.332;2022-11-20T07:58:17;6.30;99.90
25582;DHT22;13462;50.764;4.332;2022-11-20T08:00:55;6.40;99.90
25582;DHT22;13462;50.764;4.332;2022-11-20T08:03:24;6.40;99.90
25582;DHT22;13462;50.764;4.332;2022-11-20T08:05:54;6.40;99.90
25582;DHT22;13462;50.764;4.332;2022-11-20T08:08:23;6.40;99.90
25582;DHT22;13462;50.764;4.332;2022-11-20T08:10:49;6.50;99.90
25582;DHT22;13462;50.764;4.332;2022-11-20T08:13:23;6.50;99.90
25582;DHT22;13462;50.764;4.332;2022-11-20T08:16:10;6.70;99.90
25582;DHT22;13462;50.764;4.332;2022-11-20T08:18:35;6.70;99.90
25582;DHT22;13462;50.764;4.332;2022-11-20T08:21:03;6.70;99.90
25582;DHT22;13462;50.764;4.332;2022-11-20T08:23:29;6.80;99.90
25582;DHT22;13462;50.764;4.332;2022-11-20T08:26:05;6.80;99.90
25582;DHT22;13462;50.764;4.332;2022-11-20T08:28:31;6.90;99.90
25582;DHT22;13462;50.764;4.332;2022-11-20T08:31:12;6.90;99.90
25582;DHT22;13462;50.764;4.332;2022-11-20T08:34:00;7.00;99.90
25582;DHT22;13462;50.764;4.332;2022-11-20T08:36:49;7.10;99.90
25582;DHT22;13462;50.764;4.332;2022-11-20T08:39:25;7.10;99.90
25582;DHT22;13462;50.764;4.332;2022-11-20T08:41:58;7.10;99.90
25582;DHT22;13462;50.764;4.332;2022-11-20T08:44:29;7.20;99.90
25582;DHT22;13462;50.764;4.332;2022-11-20T08:46:55;7.30;99.90
25582;DHT22;13462;50.764;4.332;2022-11-20T08:56:33;7.50;99.90
25582;DHT22;13462;50.764;4.332;2022-11-20T08:59:00;7.50;99.90
25582;DHT22;13462;50.764;4.332;2022-11-20T09:01:26;7.60;99.90
25582;DHT22;13462;50.764;4.332;2022-11-20T09:03:55;7.70;99.90
25582;DHT22;13462;50.764;4.332;2022-11-20T09:06:22;7.80;99.90
25582;DHT22;13462;50.764;4.332;2022-11-20T09:11:50;8.00;99.90
25582;DHT22;13462;50.764;4.332;2022-11-20T09:14:16;8.20;99.90
25582;DHT22;13462;50.764;4.332;2022-11-20T09:16:41;8.30;99.90
25582;DHT22;13462;50.764;4.332;2022-11-20T09:19:07;8.40;99.90
25582;DHT22;13462;50.764;4.332;2022-11-20T09:21:36;8.30;99.90
25582;DHT22;13462;50.764;4.332;2022-11-20T09:24:05;8.20;99.90
25582;DHT22;13462;50.764;4.332;2022-11-20T09:26:31;8.30;99.90
25582;DHT22;13462;50.764;4.332;2022-11-20T09:28:57;8.00;99.90
25582;DHT22;13462;50.764;4.332;2022-11-20T09:31:25;8.10;99.90
25582;DHT22;13462;50.764;4.332;2022-11-20T09:33:52;8.10;99.90
25582;DHT22;13462;50.764;4.332;2022-11-20T09:36:20;8.10;99.90
25582;DHT22;13462;50.764;4.332;2022-11-20T09:38:53;8.20;99.90
25582;DHT22;13462;50.764;4.332;2022-11-20T09:41:33;8.30;99.90
25582;DHT22;13462;50.764;4.332;2022-11-20T09:47:46;8.60;99.90
25582;DHT22;13462;50.764;4.332;2022-11-20T09:50:35;8.60;99.90
25582;DHT22;13462;50.764;4.332;2022-11-20T09:53:11;8.70;99.90
25582;DHT22;13462;50.764;4.332;2022-11-20T09:55:38;8.80;99.90
25582;DHT22;13462;50.764;4.332;2022-11-20T10:01:18;8.60;99.90
25582;DHT22;13462;50.764;4.332;2022-11-20T10:03:53;8.60;99.90
25582;DHT22;13462;50.764;4.332;2022-11-20T10:06:21;8.80;99.90
25582;DHT22;13462;50.764;4.332;2022-11-20T10:22:27;9.00;99.90
25582;DHT22;13462;50.764;4.332;2022-11-20T10:30:28;9.30;99.90
25582;DHT22;13462;50.764;4.332;2022-11-20T10:33:08;9.60;99.90
25582;DHT22;13462;50.764;4.332;2022-11-20T10:35:43;9.80;99.90
25582;DHT22;13462;50.764;4.332;2022-11-20T10:38:18;9.80;99.90
25582;DHT22;13462;50.764;4.332;2022-11-20T10:40:51;9.90;99.90
25582;DHT22;13462;50.764;4.332;2022-11-20T10:43:28;9.80;99.90
25582;DHT22;13462;50.764;4.332;2022-11-20T10:46:03;9.90;99.90
25582;DHT22;13462;50.764;4.332;2022-11-20T10:48:31;9.70;99.90
25582;DHT22;13462;50.764;4.332;2022-11-20T10:56:40;9.60;99.90
25582;DHT22;13462;50.764;4.332;2022-11-20T11:01:53;9.80;99.90
25582;DHT22;13462;50.764;4.332;2022-11-20T11:06:58;9.60;99.90
25582;DHT22;13462;50.764;4.332;2022-11-20T11:09:38;9.60;99.90
25582;DHT22;13462;50.764;4.332;2022-11-20T11:12:09;9.50;99.90
25582;DHT22;13462;50.764;4.332;2022-11-20T11:14:46;9.60;99.90
25582;DHT22;13462;50.764;4.332;2022-11-20T11:17:24;9.40;99.90
25582;DHT22;13462;50.764;4.332;2022-11-20T11:20:00;9.10;99.90
25582;DHT22;13462;50.764;4.332;2022-11-20T11:22:31;9.00;99.90
25582;DHT22;13462;50.764;4.332;2022-11-20T11:24:57;9.10;99.90
25582;DHT22;13462;50.764;4.332;2022-11-20T11:27:23;9.00;99.90
25582;DHT22;13462;50.764;4.332;2022-11-20T11:29:48;8.90;99.90
25582;DHT22;13462;50.764;4.332;2022-11-20T11:32:15;8.90;99.90
25582;DHT22;13462;50.764;4.332;2022-11-20T11:34:41;8.90;99.90
25582;DHT22;13462;50.764;4.332;2022-11-20T11:37:17;8.90;99.90
25582;DHT22;13462;50.764;4.332;2022-11-20T11:39:44;8.80;99.90
25582;DHT22;13462;50.764;4.332;2022-11-20T11:42:15;8.60;99.90
25582;DHT22;13462;50.764;4.332;2022-11-20T11:44:45;8.70;99.90
25582;DHT22;13462;50.764;4.332;2022-11-20T11:47:37;8.70;99.90
25582;DHT22;13462;50.764;4.332;2022-11-20T11:53:09;8.90;99.90
25582;DHT22;13462;50.764;4.332;2022-11-20T11:55:45;8.90;99.90
25582;DHT22;13462;50.764;4.332;2022-11-20T11:58:32;8.80;99.90
25582;DHT22;13462;50.764;4.332;2022-11-20T12:01:14;8.50;99.90
25582;DHT22;13462;50.764;4.332;2022-11-20T12:03:44;8.40;99.90
25582;DHT22;13462;50.764;4.332;2022-11-20T12:06:15;8.40;99.90
25582;DHT22;13462;50.764;4.332;2022-11-20T12:11:56;8.50;99.90
25582;DHT22;13462;50.764;4.332;2022-11-20T12:14:33;8.40;99.90
25582;DHT22;13462;50.764;4.332;2022-11-20T12:17:03;8.30;99.90
25582;DHT22;13462;50.764;4.332;2022-11-20T12:19:34;8.30;99.90
25582;DHT22;13462;50.764;4.332;2022-11-20T12:25:48;8.40;99.90
25582;DHT22;13462;50.764;4.332;2022-11-20T12:31:14;8.60;99.90
25582;DHT22;13462;50.764;4.332;2022-11-20T12:33:54;8.50;99.90
25582;DHT22;13462;50.764;4.332;2022-11-20T12:39:22;8.50;99.90
25582;DHT22;13462;50.764;4.332;2022-11-20T12:42:29;8.50;99.90
25582;DHT22;13462;50.764;4.332;2022-11-20T12:51:24;8.70;99.90
25582;DHT22;13462;50.764;4.332;2022-11-20T12:56:47;8.60;99.90
25582;DHT22;13462;50.764;4.332;2022-11-20T12:59:23;8.70;99.90
25582;DHT22;13462;50.764;4.332;2022-11-20T13:08:02;8.50;99.90
25582;DHT22;13462;50.764;4.332;2022-11-20T13:10:43;8.40;99.90
25582;DHT22;13462;50.764;4.332;2022-11-20T13:16:02;8.30;99.90
25582;DHT22;13462;50.764;4.332;2022-11-20T13:18:38;8.40;99.90
25582;DHT22;13462;50.764;4.332;2022-11-20T13:21:20;8.40;99.90
25582;DHT22;13462;50.764;4.332;2022-11-20T13:23:46;8.40;99.90
25582;DHT22;13462;50.764;4.332;2022-11-20T13:26:19;8.30;99.90
25582;DHT22;13462;50.764;4.332;2022-11-20T13:28:47;8.40;99.90
25582;DHT22;13462;50.764;4.332;2022-11-20T13:31:40;8.40;99.90
25582;DHT22;13462;50.764;4.332;2022-11-20T13:34:12;8.30;99.90
25582;DHT22;13462;50.764;4.332;2022-11-20T13:36:49;8.30;99.90
25582;DHT22;13462;50.764;4.332;2022-11-20T13:39:27;8.30;99.90
25582;DHT22;13462;50.764;4.332;2022-11-20T13:41:58;8.20;99.90
25582;DHT22;13462;50.764;4.332;2022-11-20T13:44:33;8.10;99.90
25582;DHT22;13462;50.764;4.332;2022-11-20T13:47:01;8.10;99.90
25582;DHT22;13462;50.764;4.332;2022-11-20T13:49:33;8.10;99.90
25582;DHT22;13462;50.764;4.332;2022-11-20T14:00:28;8.40;99.90
25582;DHT22;13462;50.764;4.332;2022-11-20T14:05:36;8.30;99.90
25582;DHT22;13462;50.764;4.332;2022-11-20T14:08:04;8.30;99.90
25582;DHT22;13462;50.764;4.332;2022-11-20T14:10:37;8.20;99.90
25582;DHT22;13462;50.764;4.332;2022-11-20T14:13:19;8.20;99.90
25582;DHT22;13462;50.764;4.332;2022-11-20T14:16:03;8.20;99.90
25582;DHT22;13462;50.764;4.332;2022-11-20T14:18:28;8.20;99.90
25582;DHT22;13462;50.764;4.332;2022-11-20T14:21:00;8.20;99.90
25582;DHT22;13462;50.764;4.332;2022-11-20T14:23:28;8.20;99.90
25582;DHT22;13462;50.764;4.332;2022-11-20T14:25:57;8.00;99.90
25582;DHT22;13462;50.764;4.332;2022-11-20T14:28:30;8.10;99.90
25582;DHT22;13462;50.764;4.332;2022-11-20T14:30:57;8.00;99.90
25582;DHT22;13462;50.764;4.332;2022-11-20T14:33:25;8.10;99.90
25582;DHT22;13462;50.764;4.332;2022-11-20T14:35:54;8.20;99.90
25582;DHT22;13462;50.764;4.332;2022-11-20T14:38:32;8.20;99.90
25582;DHT22;13462;50.764;4.332;2022-11-20T14:41:30;8.20;99.90
25582;DHT22;13462;50.764;4.332;2022-11-20T14:44:09;8.30;99.90
25582;DHT22;13462;50.764;4.332;2022-11-20T14:46:38;8.30;99.90
25582;DHT22;13462;50.764;4.332;2022-11-20T14:49:04;8.30;99.90
25582;DHT22;13462;50.764;4.332;2022-11-20T14:51:35;8.30;99.90
25582;DHT22;13462;50.764;4.332;2022-11-20T14:54:19;8.40;99.90
25582;DHT22;13462;50.764;4.332;2022-11-20T14:57:05;8.40;99.90
25582;DHT22;13462;50.764;4.332;2022-11-20T14:59:33;8.40;99.90
25582;DHT22;13462;50.764;4.332;2022-11-20T15:02:25;8.40;99.90
25582;DHT22;13462;50.764;4.332;2022-11-20T15:04:56;8.40;99.90
25582;DHT22;13462;50.764;4.332;2022-11-20T15:07:27;8.40;99.90
25582;DHT22;13462;50.764;4.332;2022-11-20T15:12:25;8.50;99.90
25582;DHT22;13462;50.764;4.332;2022-11-20T15:14:51;8.50;99.90
25582;DHT22;13462;50.764;4.332;2022-11-20T15:17:17;8.60;99.90
25582;DHT22;13462;50.764;4.332;2022-11-20T15:19:43;8.70;99.90
25582;DHT22;13462;50.764;4.332;2022-11-20T15:22:12;8.70;99.90
25582;DHT22;13462;50.764;4.332;2022-11-20T15:24:45;8.70;99.90
25582;DHT22;13462;50.764;4.332;2022-11-20T15:27:10;8.70;99.90
25582;DHT22;13462;50.764;4.332;2022-11-20T15:29:36;8.70;99.90
25582;DHT22;13462;50.764;4.332;2022-11-20T15:32:02;8.70;99.90
25582;DHT22;13462;50.764;4.332;2022-11-20T15:34:28;8.70;99.90
25582;DHT22;13462;50.764;4.332;2022-11-20T15:36:53;8.80;99.90
25582;DHT22;13462;50.764;4.332;2022-11-20T15:39:20;8.80;99.90
25582;DHT22;13462;50.764;4.332;2022-11-20T15:41:46;8.90;99.90
25582;DHT22;13462;50.764;4.332;2022-11-20T15:44:15;9.00;99.90
25582;DHT22;13462;50.764;4.332;2022-11-20T15:46:41;9.00;99.90
25582;DHT22;13462;50.764;4.332;2022-11-20T15:49:13;9.10;99.90
25582;DHT22;13462;50.764;4.332;2022-11-20T15:51:48;9.20;99.90
25582;DHT22;13462;50.764;4.332;2022-11-20T15:54:19;9.10;99.90
25582;DHT22;13462;50.764;4.332;2022-11-20T15:56:54;9.10;99.90
25582;DHT22;13462;50.764;4.332;2022-11-20T15:59:20;9.00;99.90
25582;DHT22;13462;50.764;4.332;2022-11-20T16:01:46;8.90;99.90
25582;DHT22;13462;50.764;4.332;2022-11-20T16:04:13;9.00;99.90
25582;DHT22;13462;50.764;4.332;2022-11-20T16:06:40;9.00;99.90
25582;DHT22;13462;50.764;4.332;2022-11-20T16:09:07;9.00;99.90
25582;DHT22;13462;50.764;4.332;2022-11-20T16:11:32;9.00;99.90
25582;DHT22;13462;50.764;4.332;2022-11-20T16:13:58;9.00;99.90
25582;DHT22;13462;50.764;4.332;2022-11-20T16:16:42;8.90;99.90
25582;DHT22;13462;50.764;4.332;2022-11-20T16:19:12;9.00;99.90
25582;DHT22;13462;50.764;4.332;2022-11-20T16:21:39;9.00;99.90
25582;DHT22;13462;50.764;4.332;2022-11-20T16:24:08;9.10;99.90
25582;DHT22;13462;50.764;4.332;2022-11-20T16:26:35;9.10;99.90
25582;DHT22;13462;50.764;4.332;2022-11-20T16:29:02;9.10;99.90
25582;DHT22;13462;50.764;4.332;2022-11-20T16:31:28;9.00;99.90
25582;DHT22;13462;50.764;4.332;2022-11-20T16:33:58;9.00;99.90
25582;DHT22;13462;50.764;4.332;2022-11-20T16:36:26;9.10;99.90
25582;DHT22;13462;50.764;4.332;2022-11-20T16:38:57;9.10;99.90
25582;DHT22;13462;50.764;4.332;2022-11-20T16:41:25;9.10;99.90
25582;DHT22;13462;50.764;4.332;2022-11-20T16:43:55;9.00;99.90
25582;DHT22;13462;50.764;4.332;2022-11-20T16:46:23;8.90;99.90
25582;DHT22;13462;50.764;4.332;2022-11-20T16:48:57;8.70;99.90
25582;DHT22;13462;50.764;4.332;2022-11-20T16:51:24;8.70;99.90
25582;DHT22;13462;50.764;4.332;2022-11-20T16:53:50;8.70;99.90
25582;DHT22;13462;50.764;4.332;2022-11-20T16:56:18;8.60;99.90
25582;DHT22;13462;50.764;4.332;2022-11-20T16:58:45;8.60;99.90
25582;DHT22;13462;50.764;4.332;2022-11-20T17:01:13;8.60;99.90
25582;DHT22;13462;50.764;4.332;2022-11-20T17:03:40;8.60;99.90
25582;DHT22;13462;50.764;4.332;2022-11-20T17:06:15;8.60;99.90
25582;DHT22;13462;50.764;4.332;2022-11-20T17:08:41;8.60;99.90
25582;DHT22;13462;50.764;4.332;2022-11-20T17:11:08;8.60;99.90
25582;DHT22;13462;50.764;4.332;2022-11-20T17:13:35;8.50;99.90
25582;DHT22;13462;50.764;4.332;2022-11-20T17:16:02;8.50;99.90
25582;DHT22;13462;50.764;4.332;2022-11-20T17:18:28;8.50;99.90
25582;DHT22;13462;50.764;4.332;2022-11-20T17:20:54;8.40;99.90
25582;DHT22;13462;50.764;4.332;2022-11-20T17:23:20;8.30;99.90
25582;DHT22;13462;50.764;4.332;2022-11-20T17:25:45;8.30;99.90
25582;DHT22;13462;50.764;4.332;2022-11-20T17:28:11;8.30;99.90
25582;DHT22;13462;50.764;4.332;2022-11-20T17:30:36;8.30;99.90
25582;DHT22;13462;50.764;4.332;2022-11-20T17:33:02;8.30;99.90
25582;DHT22;13462;50.764;4.332;2022-11-20T17:35:28;8.30;99.90
25582;DHT22;13462;50.764;4.332;2022-11-20T17:37:53;8.30;99.90
25582;DHT22;13462;50.764;4.332;2022-11-20T17:40:19;8.30;99.90
25582;DHT22;13462;50.764;4.332;2022-11-20T17:42:44;8.20;99.90
25582;DHT22;13462;50.764;4.332;2022-11-20T17:45:10;8.20;99.90
25582;DHT22;13462;50.764;4.332;2022-11-20T17:47:35;8.20;99.90
25582;DHT22;13462;50.764;4.332;2022-11-20T17:50:02;8.20;99.90
25582;DHT22;13462;50.764;4.332;2022-11-20T17:52:27;8.20;99.90
25582;DHT22;13462;50.764;4.332;2022-11-20T17:54:53;8.20;99.90
25582;DHT22;13462;50.764;4.332;2022-11-20T17:57:21;8.30;99.90
25582;DHT22;13462;50.764;4.332;2022-11-20T18:00:05;8.50;99.90
25582;DHT22;13462;50.764;4.332;2022-11-20T18:02:31;8.50;99.90
25582;DHT22;13462;50.764;4.332;2022-11-20T18:04:57;8.50;99.90
25582;DHT22;13462;50.764;4.332;2022-11-20T18:07:22;8.60;99.90
25582;DHT22;13462;50.764;4.332;2022-11-20T18:09:48;8.60;99.90
25582;DHT22;13462;50.764;4.332;2022-11-20T18:12:14;8.60;99.90
25582;DHT22;13462;50.764;4.332;2022-11-20T18:14:40;8.60;99.90
25582;DHT22;13462;50.764;4.332;2022-11-20T18:17:10;8.60;99.90
25582;DHT22;13462;50.764;4.332;2022-11-20T18:19:39;8.50;99.90
25582;DHT22;13462;50.764;4.332;2022-11-20T18:22:06;8.60;99.90
25582;DHT22;13462;50.764;4.332;2022-11-20T18:24:33;8.60;99.90
25582;DHT22;13462;50.764;4.332;2022-11-20T18:27:04;8.50;99.90
25582;DHT22;13462;50.764;4.332;2022-11-20T18:29:30;8.50;99.90
25582;DHT22;13462;50.764;4.332;2022-11-20T18:31:57;8.50;99.90
25582;DHT22;13462;50.764;4.332;2022-11-20T18:34:24;8.50;99.90
25582;DHT22;13462;50.764;4.332;2022-11-20T18:36:50;8.50;99.90
25582;DHT22;13462;50.764;4.332;2022-11-20T18:39:15;8.60;99.90
25582;DHT22;13462;50.764;4.332;2022-11-20T18:41:41;8.50;99.90
25582;DHT22;13462;50.764;4.332;2022-11-20T18:44:29;8.60;99.90
25582;DHT22;13462;50.764;4.332;2022-11-20T18:47:16;8.60;99.90
25582;DHT22;13462;50.764;4.332;2022-11-20T18:49:42;8.50;99.90
25582;DHT22;13462;50.764;4.332;2022-11-20T18:52:11;8.50;99.90
25582;DHT22;13462;50.764;4.332;2022-11-20T18:54:37;8.50;99.90
25582;DHT22;13462;50.764;4.332;2022-11-20T18:57:03;8.50;99.90
25582;DHT22;13462;50.764;4.332;2022-11-20T18:59:29;8.50;99.90
25582;DHT22;13462;50.764;4.332;2022-11-20T19:01:55;8.40;99.90
25582;DHT22;13462;50.764;4.332;2022-11-20T19:04:20;8.40;99.90
25582;DHT22;13462;50.764;4.332;2022-11-20T19:06:47;8.30;99.90
25582;DHT22;13462;50.764;4.332;2022-11-20T19:09:17;8.30;99.90
25582;DHT22;13462;50.764;4.332;2022-11-20T19:11:43;8.30;99.90
25582;DHT22;13462;50.764;4.332;2022-11-20T19:14:09;8.20;99.90
25582;DHT22;13462;50.764;4.332;2022-11-20T19:16:35;8.30;99.90
25582;DHT22;13462;50.764;4.332;2022-11-20T19:19:02;8.30;99.90
25582;DHT22;13462;50.764;4.332;2022-11-20T19:21:28;8.40;99.90
25582;DHT22;13462;50.764;4.332;2022-11-20T19:23:56;8.40;99.90
25582;DHT22;13462;50.764;4.332;2022-11-20T19:26:23;8.30;99.90
25582;DHT22;13462;50.764;4.332;2022-11-20T19:28:49;8.10;99.90
25582;DHT22;13462;50.764;4.332;2022-11-20T19:31:18;8.00;99.90
25582;DHT22;13462;50.764;4.332;2022-11-20T19:33:44;8.00;99.90
25582;DHT22;13462;50.764;4.332;2022-11-20T19:36:34;8.00;99.90
25582;DHT22;13462;50.764;4.332;2022-11-20T19:39:01;7.90;99.90
25582;DHT22;13462;50.764;4.332;2022-11-20T19:41:28;7.90;99.90
25582;DHT22;13462;50.764;4.332;2022-11-20T19:44:04;7.80;99.90
25582;DHT22;13462;50.764;4.332;2022-11-20T19:46:31;7.70;99.90
25582;DHT22;13462;50.764;4.332;2022-11-20T19:48:57;7.70;99.90
25582;DHT22;13462;50.764;4.332;2022-11-20T19:51:32;7.70;99.90
25582;DHT22;13462;50.764;4.332;2022-11-20T19:53:58;7.80;99.90
25582;DHT22;13462;50.764;4.332;2022-11-20T19:56:26;7.70;99.90
25582;DHT22;13462;50.764;4.332;2022-11-20T19:58:53;7.80;99.90
25582;DHT22;13462;50.764;4.332;2022-11-20T20:01:21;7.70;99.90
25582;DHT22;13462;50.764;4.332;2022-11-20T20:03:48;7.70;99.90
25582;DHT22;13462;50.764;4.332;2022-11-20T20:06:17;7.70;99.90
25582;DHT22;13462;50.764;4.332;2022-11-20T20:08:43;7.60;99.90